createdAt,value
2022-08-29T00:00:59.689Z,10.55
2022-08-29T00:03:27.724Z,8.90
2022-08-29T00:05:56.640Z,8.57
2022-08-29T00:08:24.587Z,10.57
2022-08-29T00:10:51.711Z,11.40
2022-08-29T00:13:19.092Z,13.20
2022-08-29T00:15:45.967Z,11.82
2022-08-29T00:18:15.485Z,13.77
2022-08-29T00:20:42.723Z,11.48
2022-08-29T00:23:10.446Z,9.75
2022-08-29T00:25:37.950Z,10.32
2022-08-29T00:28:05.285Z,9.60
2022-08-29T00:30:32.632Z,8.25
2022-08-29T00:33:00.079Z,13.57
2022-08-29T00:35:30.981Z,11.25
2022-08-29T00:37:58.738Z,10.45
2022-08-29T00:40:31.420Z,12.15
2022-08-29T00:42:58.536Z,9.57
2022-08-29T00:45:25.558Z,9.52
2022-08-29T00:47:58.034Z,7.70
2022-08-29T00:50:40.670Z,9.75
2022-08-29T00:53:13.662Z,10.32
2022-08-29T00:55:40.927Z,8.23
2022-08-29T00:58:13.437Z,7.88
2022-08-29T01:00:43.476Z,7.95
2022-08-29T01:03:10.901Z,10.65
2022-08-29T01:05:37.856Z,9.18
2022-08-29T01:08:06.154Z,7.55
2022-08-29T01:10:53.297Z,9.68
2022-08-29T01:13:22.959Z,8.32
2022-08-29T01:15:51.199Z,7.10
2022-08-29T01:18:18.590Z,8.27
2022-08-29T01:21:00.689Z,11.88
2022-08-29T01:23:42.972Z,7.18
2022-08-29T01:26:11.274Z,8.10
2022-08-29T01:28:42.697Z,8.63
2022-08-29T01:31:31.755Z,12.20
2022-08-29T01:34:03.962Z,8.25
2022-08-29T01:36:42.448Z,7.35
2022-08-29T01:39:10.240Z,9.27
2022-08-29T01:41:37.131Z,8.73
2022-08-29T01:44:13.159Z,8.50
2022-08-29T01:46:40.881Z,7.90
2022-08-29T01:49:09.508Z,8.48
2022-08-29T01:51:37.660Z,9.75
2022-08-29T01:54:08.872Z,7.57
2022-08-29T01:56:38.389Z,8.25
2022-08-29T01:59:08.401Z,9.93
2022-08-29T02:01:38.439Z,9.98
2022-08-29T02:04:06.587Z,8.05
2022-08-29T02:06:34.275Z,10.57
2022-08-29T02:09:01.435Z,8.50
2022-08-29T02:11:28.354Z,8.15
2022-08-29T02:13:58.871Z,7.70
2022-08-29T02:16:27.384Z,7.60
2022-08-29T02:18:55.339Z,6.60
2022-08-29T02:21:24.839Z,7.20
2022-08-29T02:23:52.507Z,8.02
2022-08-29T02:26:20.728Z,6.30
2022-08-29T02:28:49.504Z,5.75
2022-08-29T02:31:16.726Z,6.47
2022-08-29T02:33:43.651Z,7.28
2022-08-29T02:36:10.724Z,7.68
2022-08-29T02:38:37.973Z,7.75
2022-08-29T02:41:06.208Z,5.28
2022-08-29T02:43:33.877Z,7.85
2022-08-29T02:46:00.895Z,6.35
2022-08-29T02:48:27.834Z,6.68
2022-08-29T02:50:56.833Z,6.72
2022-08-29T02:53:29.505Z,7.65
2022-08-29T02:55:57.017Z,7.57
2022-08-29T02:58:24.854Z,5.78
2022-08-29T03:00:52.211Z,6.78
2022-08-29T03:03:19.351Z,6.82
2022-08-29T03:05:46.661Z,5.88
2022-08-29T03:08:14.804Z,5.45
2022-08-29T03:10:42.928Z,5.85
2022-08-29T03:13:10.955Z,5.63
2022-08-29T03:15:38.245Z,5.80
2022-08-29T03:18:05.514Z,7.43
2022-08-29T03:20:34.929Z,6.90
2022-08-29T03:23:02.163Z,6.32
2022-08-29T03:25:29.369Z,6.07
2022-08-29T03:27:56.623Z,5.28
2022-08-29T03:30:24.054Z,6.47
2022-08-29T03:32:51.419Z,6.75
2022-08-29T03:35:19.700Z,6.40
2022-08-29T03:37:46.900Z,6.97
2022-08-29T03:40:14.242Z,8.65
2022-08-29T03:42:42.873Z,10.63
2022-08-29T03:45:12.077Z,7.63
2022-08-29T03:47:39.514Z,7.10
2022-08-29T03:50:06.714Z,7.40
2022-08-29T03:52:33.913Z,6.50
2022-08-29T03:55:01.149Z,7.10
2022-08-29T03:57:29.210Z,10.57
2022-08-29T03:59:58.292Z,6.00
2022-08-29T04:02:25.410Z,6.25
2022-08-29T04:05:08.264Z,7.68
2022-08-29T04:07:44.129Z,8.70
2022-08-29T04:10:14.210Z,8.05
2022-08-29T04:12:41.434Z,7.20
2022-08-29T04:15:09.188Z,7.95
2022-08-29T04:17:36.381Z,8.88
2022-08-29T04:20:05.995Z,7.85
2022-08-29T04:22:35.956Z,9.25
2022-08-29T04:25:06.282Z,7.60
2022-08-29T04:27:33.857Z,8.77
2022-08-29T04:30:00.802Z,13.98
2022-08-29T04:32:27.852Z,9.55
2022-08-29T04:34:58.360Z,7.43
2022-08-29T04:37:25.340Z,7.80
2022-08-29T04:39:52.446Z,12.50
2022-08-29T04:42:20.405Z,9.23
2022-08-29T04:44:48.364Z,11.65
2022-08-29T04:47:15.479Z,8.30
2022-08-29T04:49:42.555Z,10.40
2022-08-29T04:52:10.331Z,12.15
2022-08-29T04:54:37.399Z,9.57
2022-08-29T04:57:05.086Z,8.60
2022-08-29T04:59:32.280Z,9.88
2022-08-29T05:02:00.530Z,12.93
2022-08-29T05:04:27.536Z,8.57
2022-08-29T05:06:54.462Z,8.30
2022-08-29T05:09:22.182Z,10.13
2022-08-29T05:11:49.250Z,10.02
2022-08-29T05:14:16.098Z,9.25
2022-08-29T05:16:43.211Z,10.82
2022-08-29T05:19:10.250Z,11.40
2022-08-29T05:21:39.356Z,8.55
2022-08-29T05:24:09.654Z,11.27
2022-08-29T05:26:39.930Z,13.10
2022-08-29T05:29:09.030Z,8.35
2022-08-29T05:31:41.321Z,12.15
2022-08-29T05:34:32.430Z,9.23
2022-08-29T05:36:58.530Z,11.30
2022-08-29T05:39:25.652Z,8.32
2022-08-29T05:41:56.666Z,10.30
2022-08-29T05:44:24.002Z,9.45
2022-08-29T05:46:51.063Z,10.75
2022-08-29T05:49:17.976Z,11.52
2022-08-29T05:51:45.099Z,10.10
2022-08-29T05:54:11.964Z,9.43
2022-08-29T05:56:38.904Z,10.38
2022-08-29T05:59:06.193Z,9.00
2022-08-29T06:01:34.190Z,12.40
2022-08-29T06:04:01.348Z,9.82
2022-08-29T06:06:29.558Z,9.90
2022-08-29T06:08:57.765Z,9.10
2022-08-29T06:11:27.435Z,7.85
2022-08-29T06:13:54.822Z,9.70
2022-08-29T06:16:23.757Z,9.40
2022-08-29T06:18:51.360Z,10.25
2022-08-29T06:21:18.573Z,9.98
2022-08-29T06:23:46.202Z,9.73
2022-08-29T06:26:13.885Z,10.75
2022-08-29T06:28:47.054Z,9.82
2022-08-29T06:31:21.589Z,8.90
2022-08-29T06:33:52.084Z,10.45
2022-08-29T06:36:19.075Z,10.77
2022-08-29T06:38:46.203Z,9.80
2022-08-29T06:41:16.373Z,11.65
2022-08-29T06:43:43.614Z,10.35
2022-08-29T06:46:20.909Z,13.32
2022-08-29T06:48:48.496Z,19.08
2022-08-29T06:51:15.480Z,12.70
2022-08-29T06:53:42.748Z,16.50
2022-08-29T06:56:11.200Z,14.48
2022-08-29T06:58:38.703Z,15.82
2022-08-29T07:01:09.064Z,15.13
2022-08-29T07:03:36.394Z,16.58
2022-08-29T07:06:03.568Z,13.73
2022-08-29T07:08:31.519Z,14.75
2022-08-29T07:10:58.558Z,14.93
2022-08-29T07:13:25.563Z,16.27
2022-08-29T07:15:52.692Z,16.38
2022-08-29T07:18:20.237Z,15.27
2022-08-29T07:20:47.223Z,15.77
2022-08-29T07:23:14.368Z,14.55
2022-08-29T07:25:41.633Z,18.10
2022-08-29T07:28:08.530Z,16.92
2022-08-29T07:30:37.645Z,17.85
2022-08-29T07:33:05.116Z,15.27
2022-08-29T07:35:32.155Z,16.95
2022-08-29T07:38:01.237Z,18.20
2022-08-29T07:40:28.631Z,16.88
2022-08-29T07:42:55.606Z,20.52
2022-08-29T07:45:22.533Z,21.35
2022-08-29T07:47:49.835Z,20.73
2022-08-29T07:50:17.199Z,21.02
2022-08-29T07:52:44.199Z,21.17
2022-08-29T07:55:12.108Z,23.73
2022-08-29T07:57:39.980Z,22.25
2022-08-29T08:00:12.357Z,23.00
2022-08-29T08:02:39.587Z,22.80
2022-08-29T08:05:07.517Z,28.05
2022-08-29T08:07:35.306Z,22.65
2022-08-29T08:10:03.894Z,23.05
2022-08-29T08:12:30.807Z,27.27
2022-08-29T08:14:58.087Z,25.50
2022-08-29T08:17:25.952Z,27.67
2022-08-29T08:19:53.352Z,30.50
2022-08-29T08:22:20.259Z,29.23
2022-08-29T08:24:48.637Z,27.98
2022-08-29T08:27:15.656Z,30.02
2022-08-29T08:29:43.991Z,30.30
2022-08-29T08:32:11.082Z,32.75
2022-08-29T08:34:38.012Z,33.72
2022-08-29T08:37:08.763Z,38.08
2022-08-29T08:39:37.089Z,38.28
2022-08-29T08:42:25.841Z,36.72
2022-08-29T08:45:01.943Z,32.83
2022-08-29T08:47:33.566Z,33.50
2022-08-29T08:50:15.981Z,37.60
2022-08-29T08:52:50.888Z,31.10
2022-08-29T08:55:28.331Z,38.60
2022-08-29T08:58:02.337Z,33.13
2022-08-29T09:00:37.349Z,37.15
2022-08-29T09:03:22.690Z,32.63
2022-08-29T09:06:14.991Z,34.05
2022-08-29T09:09:10.374Z,39.03
2022-08-29T09:12:24.331Z,36.33
2022-08-29T09:15:17.720Z,41.72
2022-08-29T09:18:13.673Z,41.10
2022-08-29T09:20:42.820Z,33.63
2022-08-29T09:23:20.763Z,28.60
2022-08-29T09:25:48.315Z,27.58
2022-08-29T09:28:15.984Z,30.05
2022-08-29T09:30:46.187Z,30.30
2022-08-29T09:33:16.928Z,24.25
2022-08-29T09:35:51.983Z,24.48
2022-08-29T09:38:21.313Z,20.67
2022-08-29T09:40:57.204Z,18.33
2022-08-29T09:43:24.263Z,19.00
2022-08-29T09:46:08.003Z,14.63
2022-08-29T09:48:40.610Z,15.73
2022-08-29T09:51:12.180Z,13.57
2022-08-29T09:53:39.855Z,13.82
2022-08-29T09:56:09.388Z,11.40
2022-08-29T09:58:40.482Z,12.90
2022-08-29T10:01:17.951Z,14.07
2022-08-29T10:03:56.588Z,12.80
2022-08-29T10:06:27.136Z,13.45
2022-08-29T10:09:05.525Z,10.75
2022-08-29T10:12:12.565Z,10.27
2022-08-29T10:14:50.624Z,8.40
2022-08-29T10:17:43.558Z,8.27
2022-08-29T10:20:11.730Z,8.35
2022-08-29T10:22:50.500Z,8.52
2022-08-29T10:25:36.556Z,9.82
2022-08-29T10:28:33.021Z,8.93
2022-08-29T10:31:11.432Z,7.50
2022-08-29T10:33:41.226Z,7.60
2022-08-29T10:36:15.912Z,9.40
2022-08-29T10:38:55.952Z,5.22
2022-08-29T10:41:50.707Z,5.80
2022-08-29T10:44:20.418Z,6.10
2022-08-29T10:46:56.706Z,7.63
2022-08-29T10:49:43.096Z,6.18
2022-08-29T10:52:17.840Z,6.05
2022-08-29T10:55:06.555Z,8.63
2022-08-29T10:57:36.444Z,7.20
2022-08-29T11:00:36.470Z,6.22
2022-08-29T11:03:24.826Z,3.53
2022-08-29T11:06:03.608Z,3.60
2022-08-29T11:08:38.238Z,6.55
2022-08-29T11:11:05.225Z,4.28
2022-08-29T11:13:39.770Z,5.90
2022-08-29T11:16:36.819Z,8.98
2022-08-29T11:19:18.999Z,4.25
2022-08-29T11:21:55.527Z,3.55
2022-08-29T11:24:28.160Z,8.02
2022-08-29T11:27:22.608Z,7.18
2022-08-29T11:30:02.609Z,8.48
2022-08-29T11:32:38.979Z,7.20
2022-08-29T11:35:22.289Z,4.75
2022-08-29T11:38:11.077Z,7.25
2022-08-29T11:43:43.997Z,10.02
2022-08-29T11:46:12.522Z,5.15
2022-08-29T11:48:47.565Z,7.03
2022-08-29T11:51:37.714Z,6.13
2022-08-29T11:54:26.693Z,5.70
2022-08-29T11:57:02.734Z,6.85
2022-08-29T11:59:56.823Z,7.65
2022-08-29T12:02:32.629Z,7.25
2022-08-29T12:05:04.466Z,8.35
2022-08-29T12:07:49.353Z,7.60
2022-08-29T12:10:23.617Z,7.50
2022-08-29T12:13:11.073Z,8.93
2022-08-29T12:15:38.378Z,12.48
2022-08-29T12:18:09.745Z,9.98
2022-08-29T12:20:40.762Z,8.63
2022-08-29T12:23:11.067Z,10.75
2022-08-29T12:25:44.738Z,14.50
2022-08-29T12:28:21.119Z,10.70
2022-08-29T12:30:51.269Z,10.82
2022-08-29T12:33:43.485Z,10.77
2022-08-29T12:36:27.850Z,12.77
2022-08-29T12:39:01.106Z,10.55
2022-08-29T12:41:37.396Z,10.18
2022-08-29T12:44:11.714Z,10.05
2022-08-29T12:46:41.681Z,14.60
2022-08-29T12:49:08.944Z,21.40
2022-08-29T12:51:41.617Z,12.45
2022-08-29T12:54:10.800Z,16.35
2022-08-29T12:56:42.920Z,11.32
2022-08-29T12:59:17.985Z,13.00
2022-08-29T13:01:49.292Z,12.90
2022-08-29T13:04:20.361Z,13.57
2022-08-29T13:07:05.832Z,12.13
2022-08-29T13:09:41.414Z,11.10
2022-08-29T13:12:16.329Z,11.73
2022-08-29T13:15:05.493Z,12.80
2022-08-29T13:17:39.929Z,15.15
2022-08-29T13:20:38.018Z,12.90
2022-08-29T13:23:12.381Z,13.65
2022-08-29T13:26:02.564Z,11.43
2022-08-29T13:28:50.991Z,13.55
2022-08-29T13:31:18.597Z,10.93
2022-08-29T13:33:45.705Z,12.10
2022-08-29T13:36:47.556Z,9.77
2022-08-29T13:39:17.425Z,11.68
2022-08-29T13:41:57.776Z,10.57
2022-08-29T13:44:46.487Z,12.18
2022-08-29T13:47:18.519Z,13.27
2022-08-29T13:49:46.299Z,10.75
2022-08-29T13:52:13.409Z,12.65
2022-08-29T13:54:42.430Z,14.43
2022-08-29T13:57:20.187Z,8.77
2022-08-29T13:59:47.294Z,8.13
2022-08-29T14:02:15.103Z,9.10
2022-08-29T14:04:48.950Z,8.57
2022-08-29T14:07:19.395Z,8.10
2022-08-29T14:09:46.962Z,9.15
2022-08-29T14:12:15.212Z,8.73
2022-08-29T14:14:43.226Z,8.90
2022-08-29T14:17:11.095Z,8.05
2022-08-29T14:19:46.135Z,7.88
2022-08-29T14:22:13.152Z,8.52
2022-08-29T14:24:40.725Z,6.50
2022-08-29T14:27:08.943Z,8.02
2022-08-29T14:29:36.113Z,6.90
2022-08-29T14:32:03.572Z,6.28
2022-08-29T14:34:32.417Z,11.35
2022-08-29T14:37:03.099Z,6.13
2022-08-29T14:39:30.418Z,4.97
2022-08-29T14:41:57.508Z,7.15
2022-08-29T14:44:24.407Z,7.55
2022-08-29T14:46:51.851Z,9.32
2022-08-29T14:49:19.318Z,9.02
2022-08-29T14:51:46.764Z,7.93
2022-08-29T14:54:13.896Z,7.25
2022-08-29T14:56:50.454Z,8.98
2022-08-29T14:59:22.328Z,6.15
2022-08-29T15:01:54.278Z,6.55
2022-08-29T15:04:36.445Z,9.40
2022-08-29T15:07:09.542Z,9.32
2022-08-29T15:09:37.142Z,7.43
2022-08-29T15:12:05.115Z,9.35
2022-08-29T15:14:34.657Z,8.38
2022-08-29T15:17:02.756Z,8.38
2022-08-29T15:20:33.668Z,14.27
2022-08-29T15:22:17.653Z,7.40
2022-08-29T15:24:44.964Z,5.05
2022-08-29T15:27:12.520Z,7.07
2022-08-29T15:29:42.854Z,5.07
2022-08-29T15:32:11.635Z,6.80
2022-08-29T15:34:39.401Z,10.18
2022-08-29T15:37:07.241Z,5.97
2022-08-29T15:39:34.721Z,5.93
2022-08-29T15:42:04.003Z,5.78
2022-08-29T15:44:31.193Z,4.97
2022-08-29T15:46:58.373Z,8.68
2022-08-29T15:49:26.162Z,5.75
2022-08-29T15:51:54.095Z,6.50
2022-08-29T15:54:22.107Z,5.75
2022-08-29T15:56:49.870Z,6.07
2022-08-29T15:59:27.632Z,5.00
2022-08-29T16:02:03.728Z,6.78
2022-08-29T16:04:31.346Z,4.03
2022-08-29T16:06:59.042Z,6.93
2022-08-29T16:09:25.913Z,4.78
2022-08-29T16:11:53.119Z,4.50
2022-08-29T16:14:58.203Z,3.30
2022-08-29T16:17:08.921Z,7.43
2022-08-29T16:19:41.806Z,6.15
2022-08-29T16:22:10.047Z,6.70
2022-08-29T16:24:37.403Z,5.13
2022-08-29T16:27:04.549Z,6.22
2022-08-29T16:29:31.643Z,4.47
2022-08-29T16:31:58.840Z,5.90
2022-08-29T16:34:27.404Z,5.20
2022-08-29T16:36:58.625Z,5.22
2022-08-29T16:39:26.783Z,4.55
2022-08-29T16:41:54.153Z,5.78
2022-08-29T16:44:21.428Z,6.45
2022-08-29T16:46:48.751Z,7.38
2022-08-29T16:49:15.766Z,6.85
2022-08-29T16:51:43.045Z,6.15
2022-08-29T16:54:10.389Z,8.00
2022-08-29T16:56:39.635Z,7.80
2022-08-29T16:59:07.007Z,7.63
2022-08-29T17:01:39.955Z,10.38
2022-08-29T17:04:10.768Z,8.52
2022-08-29T17:06:39.485Z,4.85
2022-08-29T17:09:08.916Z,9.18
2022-08-29T17:11:37.090Z,7.50
2022-08-29T17:14:06.064Z,5.20
2022-08-29T17:16:33.054Z,6.70
2022-08-29T17:19:00.255Z,5.40
2022-08-29T17:21:27.365Z,8.18
2022-08-29T17:23:55.479Z,6.60
2022-08-29T17:26:22.810Z,4.93
2022-08-29T17:28:51.226Z,6.40
2022-08-29T17:31:18.695Z,4.18
2022-08-29T17:33:46.459Z,5.15
2022-08-29T17:36:13.751Z,6.03
2022-08-29T17:38:42.593Z,7.53
2022-08-29T17:41:15.326Z,7.32
2022-08-29T17:43:45.743Z,9.95
2022-08-29T17:46:12.930Z,6.15
2022-08-29T17:48:39.969Z,7.70
2022-08-29T17:51:07.167Z,8.40
2022-08-29T17:53:34.051Z,4.88
2022-08-29T17:56:18.438Z,7.63
2022-08-29T17:58:45.854Z,6.15
2022-08-29T18:01:16.527Z,7.05
2022-08-29T18:03:45.104Z,6.20
2022-08-29T18:06:14.530Z,5.15
2022-08-29T18:08:48.015Z,7.65
2022-08-29T18:11:17.408Z,7.03
2022-08-29T18:13:46.132Z,7.53
2022-08-29T18:16:14.784Z,7.13
2022-08-29T18:18:46.808Z,7.28
2022-08-29T18:21:18.277Z,6.32
2022-08-29T18:23:46.221Z,7.78
2022-08-29T18:26:14.659Z,8.65
2022-08-29T18:28:41.777Z,6.97
2022-08-29T18:31:09.673Z,4.75
2022-08-29T18:33:59.099Z,6.47
2022-08-29T18:36:26.327Z,5.18
2022-08-29T18:38:53.203Z,8.32
2022-08-29T18:41:20.208Z,8.13
2022-08-29T18:43:47.476Z,8.93
2022-08-29T18:46:14.530Z,8.82
2022-08-29T18:48:44.793Z,8.18
2022-08-29T18:51:12.831Z,8.77
2022-08-29T18:53:39.852Z,8.98
2022-08-29T18:56:06.949Z,6.72
2022-08-29T18:58:35.180Z,8.35
2022-08-29T19:01:14.466Z,6.63
2022-08-29T19:03:41.808Z,9.10
2022-08-29T19:06:08.697Z,5.50
2022-08-29T19:08:37.363Z,7.93
2022-08-29T19:11:07.293Z,5.32
2022-08-29T19:13:35.387Z,5.40
2022-08-29T19:16:04.928Z,8.45
2022-08-29T19:18:32.721Z,5.75
2022-08-29T19:21:02.678Z,8.52
2022-08-29T19:23:32.775Z,7.55
2022-08-29T19:26:00.615Z,10.05
2022-08-29T19:28:27.678Z,5.93
2022-08-29T19:30:55.461Z,7.53
2022-08-29T19:33:23.273Z,8.23
2022-08-29T19:35:51.495Z,6.07
2022-08-29T19:38:19.896Z,7.70
2022-08-29T19:40:48.721Z,6.38
2022-08-29T19:43:16.398Z,8.32
2022-08-29T19:45:44.476Z,8.13
2022-08-29T19:48:15.427Z,8.35
2022-08-29T19:50:47.449Z,7.28
2022-08-29T19:53:21.486Z,8.98
2022-08-29T19:55:56.741Z,8.70
2022-08-29T19:58:31.091Z,5.55
2022-08-29T20:01:04.476Z,5.40
2022-08-29T20:03:36.693Z,7.78
2022-08-29T20:06:06.960Z,5.03
2022-08-29T20:08:42.967Z,8.48
2022-08-29T20:11:11.442Z,10.98
2022-08-29T20:13:39.888Z,10.70
2022-08-29T20:16:12.006Z,8.90
2022-08-29T20:18:41.466Z,6.68
2022-08-29T20:21:09.141Z,7.28
2022-08-29T20:23:38.936Z,7.30
2022-08-29T20:26:14.699Z,6.55
2022-08-29T20:28:42.839Z,7.50
2022-08-29T20:31:09.852Z,7.05
2022-08-29T20:33:41.232Z,6.15
2022-08-29T20:36:27.110Z,5.85
2022-08-29T20:38:54.402Z,6.03
2022-08-29T20:41:21.881Z,8.02
2022-08-29T20:43:48.787Z,6.75
2022-08-29T20:46:16.184Z,7.43
2022-08-29T20:48:43.140Z,5.65
2022-08-29T20:51:10.763Z,6.13
2022-08-29T20:53:39.454Z,6.57
2022-08-29T20:56:07.018Z,8.43
2022-08-29T20:58:34.674Z,9.68
2022-08-29T21:01:02.400Z,6.00
2022-08-29T21:03:47.989Z,14.65
2022-08-29T21:06:18.566Z,7.18
2022-08-29T21:08:45.561Z,6.05
2022-08-29T21:11:14.691Z,6.82
2022-08-29T21:13:43.368Z,8.75
2022-08-29T21:16:11.076Z,6.63
2022-08-29T21:18:38.090Z,9.07
2022-08-29T21:21:05.344Z,8.38
2022-08-29T21:23:32.277Z,11.25
2022-08-29T21:26:00.903Z,7.75
2022-08-29T21:28:29.461Z,10.43
2022-08-29T21:30:58.056Z,12.75
2022-08-29T21:33:25.066Z,9.38
2022-08-29T21:35:52.122Z,8.40
2022-08-29T21:38:18.995Z,7.07
2022-08-29T21:40:50.847Z,10.45
2022-08-29T21:43:19.869Z,5.97
2022-08-29T21:45:47.911Z,6.30
2022-08-29T21:48:14.834Z,8.02
2022-08-29T21:50:42.108Z,5.47
2022-08-29T21:53:11.960Z,9.95
2022-08-29T21:55:38.974Z,8.13
2022-08-29T21:58:07.594Z,9.52
2022-08-29T22:00:36.005Z,8.82
2022-08-29T22:03:06.111Z,8.07
2022-08-29T22:05:33.461Z,6.68
2022-08-29T22:08:03.083Z,6.72
2022-08-29T22:10:34.045Z,8.18
2022-08-29T22:13:02.603Z,6.43
2022-08-29T22:15:48.981Z,8.43
2022-08-29T22:18:16.773Z,5.20
2022-08-29T22:20:44.654Z,12.45
2022-08-29T22:23:11.571Z,7.32
2022-08-29T22:25:41.882Z,7.32
2022-08-29T22:28:10.945Z,8.70
2022-08-29T22:30:38.663Z,6.10
2022-08-29T22:33:06.152Z,8.80
2022-08-29T22:35:33.056Z,13.18
2022-08-29T22:38:00.094Z,5.97
2022-08-29T22:40:27.584Z,5.93
2022-08-29T22:42:54.542Z,26.40
2022-08-29T22:45:21.457Z,6.43
2022-08-29T22:47:48.673Z,5.22
2022-08-29T22:50:22.681Z,6.68
2022-08-29T22:52:49.995Z,8.65
2022-08-29T22:57:48.025Z,7.43
2022-08-29T23:00:19.360Z,6.68
2022-08-29T23:02:47.509Z,11.80
2022-08-29T23:05:15.167Z,5.65
2022-08-29T23:07:42.357Z,6.90
2022-08-29T23:10:10.222Z,8.43
2022-08-29T23:12:37.369Z,7.78
2022-08-29T23:15:10.727Z,6.15
2022-08-29T23:17:37.636Z,7.05
2022-08-29T23:20:06.949Z,11.07
2022-08-29T23:22:34.068Z,8.27
2022-08-29T23:25:01.103Z,12.07
2022-08-29T23:27:30.207Z,10.00
2022-08-29T23:29:58.581Z,6.13
2022-08-29T23:32:26.204Z,6.63
2022-08-29T23:34:53.523Z,10.25
2022-08-29T23:37:20.612Z,12.02
2022-08-29T23:39:47.454Z,9.50
2022-08-29T23:42:14.330Z,9.77
2022-08-29T23:44:41.420Z,7.45
2022-08-29T23:47:08.627Z,6.30
2022-08-29T23:49:35.719Z,12.50
2022-08-29T23:52:04.181Z,8.18
2022-08-29T23:54:31.598Z,6.30
2022-08-29T23:56:58.522Z,7.00
2022-08-29T23:59:44.004Z,8.48
